Forest Lake, Minnesota
Current Conditions -  °F | °C
As of 4:54 AM on Saturday 25 Oct 2014 (Local Time) from KANE Reporting Station
Clear Clear  
Wind Chill: 54°   Ceiling: Unl
Heat Index: 54°   Visibility: 10mi
Dew Point: 37°   Wind: 10mph
Humidity: 54%   Direction: 280°W
Pressure: 29.96"   Gusts: NA
Location:  45.28°N, 92.98°W
Report Text: KANE 250954Z AUTO 28009KT 10SM CLR 12/03 A2996 RMK AO2
Loading
Personal Weather Stations






























Interactive Weather Map
Tropical Storm Tracking
New forecast layout! Learn more

10-Day Weather Forecast

Advertisements
Track Severe Weather on mobile